createdAt,value
2017-05-19T00:44:34.787Z,14.82
2017-05-19T00:47:03.723Z,15.68
2017-05-19T00:49:32.675Z,15.82
2017-05-19T00:52:01.603Z,14.90
2017-05-19T00:54:30.589Z,15.90
2017-05-19T00:56:59.544Z,16.13
2017-05-19T00:59:28.457Z,19.63
2017-05-19T01:06:54.397Z,21.50
2017-05-19T02:11:17.306Z,25.53
2017-05-19T02:13:46.998Z,28.03
2017-05-19T02:16:15.941Z,26.17
2017-05-19T02:18:44.924Z,28.80
2017-05-19T03:52:53.313Z,19.40
2017-05-19T03:55:22.280Z,20.60
2017-05-19T03:57:51.221Z,20.00
2017-05-19T04:00:20.147Z,22.00
2017-05-19T04:02:49.120Z,22.32
2017-05-19T04:05:18.813Z,21.40
2017-05-19T04:07:47.733Z,21.03
2017-05-19T04:10:16.709Z,22.58
2017-05-19T04:12:46.366Z,20.65
2017-05-19T04:15:15.317Z,20.97
2017-05-19T04:17:45.009Z,21.75
2017-05-19T04:20:13.933Z,21.30
2017-05-19T04:22:42.859Z,23.65
2017-05-19T04:25:11.809Z,20.38
2017-05-19T04:27:41.489Z,21.17
2017-05-19T04:30:10.421Z,24.00
2017-05-19T04:32:39.378Z,20.93
2017-05-19T04:35:08.325Z,19.92
2017-05-19T04:37:37.262Z,20.72
2017-05-19T04:40:06.231Z,21.28
2017-05-19T04:42:35.169Z,21.57
2017-05-19T04:45:04.832Z,21.73
2017-05-19T04:47:33.786Z,21.45
2017-05-19T04:50:02.714Z,22.17
2017-05-19T04:52:31.680Z,22.53
2017-05-19T04:55:00.641Z,23.35
2017-05-19T04:57:29.559Z,23.38
2017-05-19T04:59:58.486Z,23.37
2017-05-19T05:02:27.437Z,21.87
2017-05-19T05:04:57.095Z,23.78
2017-05-19T05:07:26.040Z,22.07
2017-05-19T05:09:55.755Z,23.07
2017-05-19T05:12:24.685Z,23.43
2017-05-19T05:14:53.611Z,25.05
2017-05-19T05:17:22.563Z,27.20
2017-05-19T05:19:51.504Z,27.42
2017-05-19T05:22:21.818Z,25.52
2017-05-19T05:24:50.794Z,24.73
2017-05-19T05:27:19.716Z,26.33
2017-05-19T05:29:49.395Z,26.38
2017-05-19T05:32:18.338Z,25.82
2017-05-19T05:34:47.257Z,24.95
2017-05-19T05:37:16.185Z,26.10
2017-05-19T05:39:45.166Z,24.07
2017-05-19T05:42:14.091Z,24.68
2017-05-19T05:44:43.019Z,27.03
2017-05-19T05:47:12.716Z,22.90
2017-05-19T05:49:42.379Z,25.02
2017-05-19T05:52:11.312Z,24.35
2017-05-19T05:54:40.281Z,25.02
2017-05-19T05:57:09.233Z,24.35
2017-05-19T05:59:38.176Z,24.53
2017-05-19T06:02:07.145Z,29.47
2017-05-19T06:04:36.181Z,26.20
2017-05-19T06:07:05.837Z,24.03
2017-05-19T06:09:34.809Z,25.00
2017-05-19T06:12:03.729Z,25.47
2017-05-19T06:14:32.668Z,24.58
2017-05-19T06:17:02.360Z,26.40
2017-05-19T06:19:59.312Z,25.12
2017-05-19T06:22:28.261Z,24.97
2017-05-19T06:24:57.217Z,23.90
2017-05-19T06:27:26.179Z,23.60
2017-05-19T06:29:55.115Z,24.38
2017-05-19T06:32:24.047Z,25.23
2017-05-19T06:34:53.002Z,24.25
2017-05-19T06:37:21.947Z,25.13
2017-05-19T06:39:50.872Z,23.25
2017-05-19T06:42:19.830Z,27.12
2017-05-19T06:44:48.762Z,23.48
2017-05-19T06:47:17.687Z,24.13
2017-05-19T06:49:46.683Z,25.52
2017-05-19T06:52:15.616Z,21.55
2017-05-19T06:54:44.560Z,20.10
2017-05-19T06:57:13.529Z,19.10
2017-05-19T06:59:42.481Z,20.55
2017-05-19T07:02:11.420Z,20.27
2017-05-19T07:04:40.379Z,20.28
2017-05-19T07:07:09.324Z,18.28
2017-05-19T07:09:38.247Z,20.45
2017-05-19T07:12:07.238Z,20.97
2017-05-19T07:14:36.184Z,21.68
2017-05-19T07:17:05.125Z,21.98
2017-05-19T07:19:34.100Z,20.70
2017-05-19T07:22:03.046Z,20.25
2017-05-19T07:24:31.997Z,20.00
2017-05-19T07:27:00.974Z,20.47
2017-05-19T07:29:29.899Z,18.97
2017-05-19T07:31:58.848Z,22.27
2017-05-19T07:34:27.804Z,20.93
2017-05-19T07:36:56.791Z,17.83
2017-05-19T07:39:25.725Z,17.37
2017-05-19T07:41:54.700Z,16.77
2017-05-19T07:44:23.640Z,16.60
2017-05-19T07:46:52.581Z,16.80
2017-05-19T07:49:21.551Z,16.93
2017-05-19T07:51:50.493Z,15.32
2017-05-19T07:54:19.414Z,14.68
2017-05-19T07:56:48.391Z,15.37
2017-05-19T07:59:17.345Z,15.18
2017-05-19T08:01:46.293Z,16.23
2017-05-19T08:04:15.273Z,12.28
2017-05-19T08:06:44.222Z,13.37
2017-05-19T08:09:13.171Z,12.72
2017-05-19T08:11:42.133Z,11.78
2017-05-19T08:14:11.070Z,12.74
2017-05-19T08:16:39.998Z,12.18
2017-05-19T08:19:08.976Z,13.12
2017-05-19T08:21:37.923Z,11.58
2017-05-19T08:24:06.876Z,12.52
2017-05-19T08:26:35.829Z,10.88
2017-05-19T08:29:04.762Z,11.70
2017-05-19T08:31:33.704Z,12.20
2017-05-19T08:34:02.697Z,13.12
2017-05-19T08:36:31.626Z,13.60
2017-05-19T08:39:00.573Z,12.34
2017-05-19T08:41:29.545Z,13.03
2017-05-19T08:43:58.496Z,15.15
2017-05-19T08:46:27.428Z,12.75
2017-05-19T08:48:56.409Z,12.33
2017-05-19T08:51:25.342Z,12.17
2017-05-19T08:53:54.275Z,14.05
2017-05-19T08:58:51.732Z,12.70
2017-05-19T09:13:43.020Z,13.40
2017-05-19T09:18:40.453Z,10.70
2017-05-19T09:21:09.373Z,10.78
2017-05-19T09:23:38.299Z,12.86
2017-05-19T09:26:07.277Z,11.58
2017-05-19T09:28:36.226Z,12.10
2017-05-19T09:31:05.174Z,13.40
2017-05-19T09:33:34.149Z,12.70
2017-05-19T09:36:03.068Z,12.78
2017-05-19T09:38:32.004Z,13.78
2017-05-19T09:41:00.977Z,13.82
2017-05-19T09:43:29.920Z,14.70
2017-05-19T09:45:58.866Z,13.16
2017-05-19T09:48:27.840Z,15.16
2017-05-19T09:50:56.781Z,13.50
2017-05-19T09:53:25.705Z,11.38
2017-05-19T09:55:54.658Z,12.90
2017-05-19T09:58:23.602Z,16.96
2017-05-19T10:00:52.541Z,18.72
2017-05-19T10:03:21.514Z,16.56
2017-05-19T10:05:50.472Z,16.26
2017-05-19T10:08:19.425Z,17.42
2017-05-19T10:10:48.403Z,18.26
2017-05-19T10:13:17.331Z,19.18
2017-05-19T10:15:46.271Z,16.74
2017-05-19T10:18:15.232Z,20.68
2017-05-19T10:20:44.181Z,19.72
2017-05-19T10:23:13.125Z,19.90
2017-05-19T10:25:42.097Z,17.94
2017-05-19T10:28:11.046Z,18.94
2017-05-19T10:30:39.994Z,18.60
2017-05-19T10:33:08.966Z,19.86
2017-05-19T10:35:37.928Z,18.58
2017-05-19T10:38:06.874Z,18.38
2017-05-19T10:40:35.843Z,20.72
2017-05-19T10:43:04.777Z,22.08
2017-05-19T10:45:33.729Z,17.57
2017-05-19T10:48:02.690Z,20.35
2017-05-19T10:50:31.617Z,20.90
2017-05-19T10:53:00.568Z,19.57
2017-05-19T10:55:29.943Z,21.87
2017-05-19T10:57:58.892Z,20.28
2017-05-19T11:00:27.852Z,19.43
2017-05-19T11:02:56.835Z,21.38
2017-05-19T11:05:25.784Z,21.73
2017-05-19T11:07:54.737Z,20.35
2017-05-19T11:10:23.714Z,22.45
2017-05-19T11:12:52.649Z,22.18
2017-05-19T11:15:21.593Z,19.25
2017-05-19T11:17:50.572Z,20.75
2017-05-19T11:20:19.509Z,18.27
2017-05-19T11:22:48.462Z,20.55
2017-05-19T11:25:17.421Z,20.47
2017-05-19T11:27:46.358Z,21.30
2017-05-19T11:30:15.308Z,21.67
2017-05-19T11:32:44.285Z,21.72
2017-05-19T11:35:13.237Z,20.25
2017-05-19T11:37:42.170Z,18.65
2017-05-19T11:40:11.132Z,23.38
2017-05-19T11:42:40.063Z,23.43
2017-05-19T11:45:08.996Z,20.88
2017-05-19T11:47:37.997Z,18.58
2017-05-19T11:50:06.948Z,19.20
2017-05-19T11:52:35.897Z,20.53
2017-05-19T11:55:04.878Z,19.38
2017-05-19T11:57:33.822Z,22.88
2017-05-19T12:00:02.746Z,20.37
2017-05-19T12:02:31.706Z,19.92
2017-05-19T12:05:00.632Z,19.85
2017-05-19T12:07:29.585Z,19.02
2017-05-19T12:10:05.270Z,18.75
2017-05-19T12:12:34.245Z,18.70
2017-05-19T13:02:04.281Z,23.23
2017-05-19T13:34:14.909Z,30.80
2017-05-19T13:59:00.169Z,25.02
2017-05-19T14:01:29.149Z,24.83
2017-05-19T14:03:58.093Z,26.13
2017-05-19T14:06:27.015Z,26.43
2017-05-19T14:08:55.973Z,26.00
2017-05-19T14:26:15.846Z,28.20
2017-05-19T14:28:44.765Z,24.53
2017-05-19T14:31:13.738Z,27.05
2017-05-19T15:20:43.746Z,31.42
2017-05-19T15:23:12.730Z,34.53
2017-05-19T15:25:41.677Z,33.87
2017-05-19T15:28:10.619Z,35.08
2017-05-19T15:30:39.574Z,33.70
2017-05-19T15:33:08.495Z,34.77
2017-05-19T15:35:37.437Z,37.88
2017-05-19T15:38:06.410Z,36.12
2017-05-19T15:43:03.793Z,38.33
2017-05-19T16:22:40.237Z,41.13
2017-05-19T16:25:09.162Z,40.52
2017-05-19T16:27:38.091Z,34.43
2017-05-19T16:30:07.077Z,39.56
2017-05-19T16:32:36.009Z,35.73
2017-05-19T16:35:04.934Z,37.55
2017-05-19T16:44:59.316Z,34.37
2017-05-19T16:47:28.265Z,37.30
2017-05-19T16:49:57.213Z,38.55
2017-05-19T16:52:26.194Z,32.82
2017-05-19T16:54:55.141Z,30.18
2017-05-19T17:02:21.078Z,40.32
2017-05-19T17:04:50.031Z,38.02
2017-05-19T17:07:18.982Z,38.42
2017-05-19T17:14:44.893Z,39.77
2017-05-19T17:24:39.510Z,39.82
2017-05-19T17:27:08.456Z,41.42
2017-05-19T17:41:59.733Z,39.87
2017-05-19T17:44:28.706Z,41.38
2017-05-19T17:46:57.629Z,41.65
2017-05-19T17:49:26.573Z,40.10
2017-05-19T17:51:55.933Z,38.57
2017-05-19T17:54:24.886Z,35.50
2017-05-19T17:56:53.830Z,35.43
2017-05-19T17:59:22.809Z,37.70
2017-05-19T18:01:51.737Z,36.62
2017-05-19T18:04:20.674Z,38.98
2017-05-19T19:13:38.690Z,29.78
2017-05-19T19:16:07.614Z,25.28
2017-05-19T19:18:36.555Z,25.08
2017-05-19T19:21:05.503Z,23.83
2017-05-19T19:23:34.424Z,30.52
2017-05-19T19:26:03.370Z,29.43
2017-05-19T19:28:32.326Z,27.27
2017-05-19T19:31:01.245Z,25.48
2017-05-19T19:33:30.171Z,30.12
2017-05-19T19:35:59.135Z,31.07
2017-05-19T19:38:28.054Z,33.40
2017-05-19T19:40:56.986Z,36.40
2017-05-19T19:55:48.368Z,31.08
2017-05-19T19:58:17.350Z,29.85
2017-05-19T20:32:56.643Z,30.40
2017-05-19T20:35:25.620Z,28.03
2017-05-19T20:37:54.564Z,25.25
2017-05-19T20:40:23.508Z,28.50
2017-05-19T20:42:52.471Z,28.00
2017-05-19T20:45:21.417Z,29.35
2017-05-19T20:47:50.362Z,28.62
2017-05-19T20:50:19.317Z,28.52
2017-05-19T20:52:48.255Z,27.83
2017-05-19T20:55:17.206Z,29.93
2017-05-19T20:57:46.188Z,31.18
2017-05-19T21:00:15.133Z,33.42
2017-05-19T21:02:44.082Z,29.33
2017-05-19T21:05:13.062Z,29.13
2017-05-19T21:07:42.008Z,25.32
2017-05-19T21:10:10.952Z,27.40
2017-05-19T21:12:39.909Z,28.43
2017-05-19T21:15:08.856Z,29.13
2017-05-19T21:17:37.782Z,29.15
2017-05-19T21:20:06.753Z,27.07
2017-05-19T21:22:35.694Z,30.20
2017-05-19T21:25:04.646Z,33.27
2017-05-19T21:27:33.609Z,32.43
2017-05-19T21:30:02.537Z,30.28
2017-05-19T21:32:31.467Z,28.85
2017-05-19T21:35:00.423Z,31.60
2017-05-19T21:37:29.369Z,28.07
2017-05-19T21:39:58.303Z,26.95
2017-05-19T21:42:27.280Z,33.25
2017-05-19T21:44:56.215Z,26.25
2017-05-19T21:47:25.151Z,27.82
2017-05-19T21:49:54.112Z,26.03
2017-05-19T21:52:23.043Z,24.30
2017-05-19T21:54:51.989Z,24.38
2017-05-19T21:57:20.968Z,23.50
2017-05-19T21:59:49.893Z,27.37
2017-05-19T22:02:18.838Z,24.90
2017-05-19T22:04:47.799Z,23.35
2017-05-19T22:07:16.751Z,24.25
2017-05-19T22:09:45.693Z,22.85
2017-05-19T22:12:14.655Z,25.72
2017-05-19T22:14:43.608Z,24.42
2017-05-19T22:17:12.545Z,23.47
2017-05-19T22:19:41.514Z,22.87
2017-05-19T22:22:10.462Z,23.60
2017-05-19T22:24:39.389Z,22.27
2017-05-19T22:27:08.366Z,20.05
2017-05-19T22:29:37.294Z,20.57
2017-05-19T22:32:06.223Z,21.03
2017-05-19T22:34:35.201Z,24.10
2017-05-19T22:37:04.156Z,22.33
2017-05-19T22:39:33.086Z,22.20
2017-05-19T22:42:02.047Z,22.38
2017-05-19T22:44:30.998Z,19.25
2017-05-19T22:46:59.950Z,19.55
2017-05-19T22:49:28.902Z,18.10
2017-05-19T22:51:57.845Z,15.70
2017-05-19T22:54:26.800Z,16.13
2017-05-19T22:56:55.768Z,16.25
2017-05-19T22:59:24.695Z,16.02
2017-05-19T23:01:52.868Z,14.60
2017-05-19T23:04:21.819Z,15.75
2017-05-19T23:06:50.750Z,14.97
2017-05-19T23:09:19.673Z,15.12
2017-05-19T23:11:48.635Z,19.18
2017-05-19T23:14:17.564Z,15.47
2017-05-19T23:16:46.493Z,14.77
2017-05-19T23:19:15.440Z,15.97
2017-05-19T23:21:44.368Z,15.10
2017-05-19T23:24:13.297Z,14.32
2017-05-19T23:26:42.252Z,14.55
2017-05-19T23:29:11.179Z,14.55
2017-05-19T23:31:40.115Z,16.17
2017-05-19T23:34:09.096Z,13.97
2017-05-19T23:36:38.045Z,15.93
2017-05-19T23:39:06.970Z,14.48
2017-05-19T23:41:35.953Z,16.03
2017-05-19T23:44:04.898Z,15.70
2017-05-19T23:46:33.840Z,19.05
2017-05-19T23:49:02.826Z,15.88
2017-05-19T23:51:31.755Z,15.32
2017-05-19T23:54:00.697Z,16.60
2017-05-19T23:56:29.669Z,16.75
2017-05-19T23:58:58.618Z,15.85
